Terminal Aerodrome Forecast
Issued by NWS

Current Version | Previous Version | Text Only | Print | Product List | Glossary On
Versions: 1 2 3 4 5 6 7 8 9 10 11 12 13 14
000 FTUS41 KBTV 052320 TAFMPV TAF KMPV 052320Z 0600/0624 28004KT P6SM SCT200 FM060200 VRB02KT P6SM SKC FM062100 21008KT P6SM SCT200=

USA.gov is the U.S. government's official web portal to all federal, state and local government web resources and services.